Terminal Aerodrome Forecast
Issued by NWS

Home | Current Version | Previous Version | Text Only | Print | Product List | Glossary On
Versions: 1 2 3 4 5 6 7 8 9 10 11 12 13 14 15 16 17 18 19 20
239
FTUS44 KEPZ 172340
TAFTCS
TAF
KTCS 172340Z 1800/1824 15008KT P6SM FEW020 SCT040 BKN200
     FM180300 27006KT P6SM FEW020 BKN200
     FM181700 21012KT P6SM VCSH SCT040 BKN100
     FM182000 23015G25KT P6SM SCT040 BKN100=

USA.gov is the U.S. government's official web portal to all federal, state and local government web resources and services.